Time;durP1;ratioP1;P1;durP2;ratioP2;P2;SDS_P1;SDS_P2;PMS_P1;PMS_P2;Temp;Humidity;BMP_temperature;BMP_pressure;BME280_temperature;BME280_humidity;BME280_pressure;Samples;Min_cycle;Max_cycle;Signal;HPM_P1;HPM_P2
2024/01/25 00:03:58;;;;;;;30.45;11.80;;;;;;;6.79;100.00;102391.47;10576598;27;20169;-80
2024/01/25 00:09:00;;;;;;;36.30;11.20;;;;;;;6.74;100.00;102385.84;10578654;27;20115;-80
2024/01/25 00:14:01;;;;;;;43.63;12.65;;;;;;;6.71;100.00;102395.09;10559566;27;20038;-80
2024/01/25 00:19:01;;;;;;;27.45;12.35;;;;;;;6.66;100.00;102398.97;10563216;27;20038;-80
2024/01/25 00:24:02;;;;;;;38.53;11.93;;;;;;;6.64;100.00;102401.41;10575139;27;20062;-81
2024/01/25 00:29:02;;;;;;;35.90;12.18;;;;;;;6.58;100.00;102411.28;10594577;27;20395;-81
2024/01/25 00:34:03;;;;;;;29.67;12.60;;;;;;;6.51;100.00;102394.22;10589015;27;20035;-80
2024/01/25 00:39:04;;;;;;;41.90;13.18;;;;;;;6.34;100.00;102415.22;10557106;27;20517;-79
2024/01/25 00:44:05;;;;;;;43.55;13.77;;;;;;;6.16;100.00;102423.19;10570751;27;20141;-79
2024/01/25 00:49:05;;;;;;;45.58;14.98;;;;;;;5.97;100.00;102420.56;10575052;27;20422;-79
2024/01/25 00:54:07;;;;;;;38.45;12.60;;;;;;;5.74;100.00;102419.38;10581499;27;20422;-80
2024/01/25 00:59:07;;;;;;;39.43;12.93;;;;;;;5.55;100.00;102419.38;10594164;27;20067;-79
2024/01/25 01:04:08;;;;;;;37.60;12.85;;;;;;;5.52;100.00;102435.56;10546853;27;20138;-79
2024/01/25 01:09:09;;;;;;;36.20;11.95;;;;;;;5.42;100.00;102428.59;10569912;27;20486;-80
2024/01/25 01:14:09;;;;;;;46.70;13.27;;;;;;;5.19;100.00;102426.44;10582699;27;20137;-80
2024/01/25 01:19:10;;;;;;;47.45;16.48;;;;;;;5.21;100.00;102424.00;10547263;28;20126;-80
2024/01/25 01:24:11;;;;;;;43.35;13.32;;;;;;;5.00;100.00;102429.88;10555837;27;20035;-80
2024/01/25 01:29:11;;;;;;;51.53;13.90;;;;;;;4.89;100.00;102438.31;10536598;28;20097;-79
2024/01/25 01:34:14;;;;;;;45.35;17.35;;;;;;;4.78;100.00;102442.50;10546909;28;20130;-79
2024/01/25 01:39:15;;;;;;;38.15;12.98;;;;;;;4.75;100.00;102439.59;10547149;28;20036;-78
2024/01/25 01:44:15;;;;;;;63.47;16.52;;;;;;;4.70;100.00;102446.03;10574286;28;20138;-79
2024/01/25 01:49:16;;;;;;;38.72;13.23;;;;;;;4.52;100.00;102448.66;10545505;28;20050;-79
2024/01/25 01:54:17;;;;;;;36.22;16.15;;;;;;;4.34;100.00;102455.53;10548068;28;20150;-79
2024/01/25 01:59:17;;;;;;;53.92;15.63;;;;;;;4.30;100.00;102473.25;10539946;28;20118;-79
2024/01/25 02:04:18;;;;;;;45.67;13.20;;;;;;;4.23;100.00;102463.91;10575819;27;20543;-80
2024/01/25 02:09:18;;;;;;;48.17;15.45;;;;;;;3.99;100.00;102470.19;10555381;28;20122;-79
2024/01/25 02:14:19;;;;;;;36.13;12.60;;;;;;;3.90;100.00;102478.88;10553853;28;20560;-79
2024/01/25 02:19:19;;;;;;;60.70;15.18;;;;;;;3.74;100.00;102485.84;10532882;28;20043;-80
2024/01/25 02:24:20;;;;;;;44.65;14.00;;;;;;;3.66;100.00;102495.41;10554615;28;20126;-79
2024/01/25 02:29:20;;;;;;;37.45;12.13;;;;;;;3.56;100.00;102497.81;10568243;27;20460;-80
2024/01/25 02:34:21;;;;;;;38.70;13.73;;;;;;;3.40;100.00;102508.28;10569519;27;20055;-80
2024/01/25 02:39:21;;;;;;;48.15;12.60;;;;;;;3.30;100.00;102501.25;10579013;27;20045;-80
2024/01/25 02:44:22;;;;;;;44.92;15.27;;;;;;;3.12;100.00;102489.91;10552330;28;20047;-81
2024/01/25 02:49:24;;;;;;;48.42;16.20;;;;;;;3.05;100.00;102503.88;10534759;28;20185;-80
2024/01/25 02:54:24;;;;;;;42.05;13.10;;;;;;;3.23;100.00;102503.19;10528349;28;20086;-80
2024/01/25 02:59:25;;;;;;;50.13;17.08;;;;;;;3.11;100.00;102495.84;10509297;28;20480;-80
2024/01/25 03:04:25;;;;;;;36.35;12.48;;;;;;;3.11;100.00;102491.56;10510540;28;20115;-80
2024/01/25 03:09:27;;;;;;;40.97;16.05;;;;;;;3.12;100.00;102498.56;10510303;28;20130;-81
2024/01/25 03:14:27;;;;;;;46.60;15.45;;;;;;;3.11;100.00;102508.78;10522962;28;20076;-80
2024/01/25 03:19:28;;;;;;;39.25;14.85;;;;;;;2.97;100.00;102528.03;10515454;28;20410;-80
2024/01/25 03:24:28;;;;;;;31.20;14.82;;;;;;;2.95;100.00;102507.19;10521702;28;20155;-80
2024/01/25 03:29:29;;;;;;;41.78;13.15;;;;;;;2.90;100.00;102511.84;10553613;28;20491;-80
2024/01/25 03:34:29;;;;;;;45.92;13.35;;;;;;;2.81;100.00;102513.47;10511291;28;20794;-79
2024/01/25 03:39:30;;;;;;;53.72;15.75;;;;;;;2.74;100.00;102503.25;10509238;28;20122;-79
2024/01/25 03:44:31;;;;;;;36.28;14.13;;;;;;;2.72;100.00;102497.91;10509337;28;20040;-80
2024/01/25 03:49:31;;;;;;;41.28;16.67;;;;;;;2.77;100.00;102517.44;10565942;27;20122;-79
2024/01/25 03:54:32;;;;;;;51.63;16.35;;;;;;;2.72;100.00;102497.00;10598452;27;20061;-80
2024/01/25 03:59:33;;;;;;;50.45;17.50;;;;;;;2.60;100.00;102502.69;10520971;28;20566;-79
2024/01/25 04:04:33;;;;;;;57.03;18.70;;;;;;;2.60;100.00;102514.72;10541005;28;20060;-80
2024/01/25 04:09:33;;;;;;;45.90;17.08;;;;;;;2.51;100.00;102513.75;10563940;27;20176;-79
2024/01/25 04:14:34;;;;;;;47.55;16.05;;;;;;;2.30;100.00;102500.34;10569526;28;20114;-79
2024/01/25 04:19:36;;;;;;;57.25;18.13;;;;;;;2.25;100.00;102497.25;10532443;27;20111;-80
2024/01/25 04:24:37;;;;;;;57.95;14.23;;;;;;;2.27;100.00;102494.84;10532829;28;20055;-80
2024/01/25 04:29:41;;;;;;;49.20;15.27;;;;;;;2.22;100.00;102499.50;10549137;28;20119;-80
2024/01/25 04:34:43;;;;;;;39.85;12.57;;;;;;;2.15;100.00;102497.03;10532976;28;20047;-79
2024/01/25 04:39:44;;;;;;;49.80;13.88;;;;;;;1.98;100.00;102490.94;10531526;27;20505;-79
2024/01/25 04:44:44;;;;;;;42.73;15.40;;;;;;;1.89;100.00;102475.41;10550163;28;20046;-79
2024/01/25 04:49:45;;;;;;;45.28;14.65;;;;;;;1.76;100.00;102480.88;10544394;28;20071;-79
2024/01/25 04:54:45;;;;;;;25.85;10.85;;;;;;;1.68;100.00;102476.53;10548967;28;20126;-79
2024/01/25 04:59:46;;;;;;;43.63;13.38;;;;;;;1.60;100.00;102473.13;10544329;28;20061;-80
2024/01/25 05:04:46;;;;;;;37.50;14.93;;;;;;;1.68;100.00;102466.22;10549514;28;20547;-80
2024/01/25 05:09:47;;;;;;;33.78;13.68;;;;;;;1.73;100.00;102475.38;10546539;28;20055;-80
2024/01/25 05:14:48;;;;;;;34.38;13.15;;;;;;;1.83;100.00;102478.97;10564887;28;20059;-80
2024/01/25 05:19:48;;;;;;;37.40;14.57;;;;;;;1.57;100.00;102480.53;10547406;28;20074;-80
2024/01/25 05:24:49;;;;;;;33.07;14.83;;;;;;;1.47;100.00;102477.69;10555389;28;20123;-79
2024/01/25 05:29:49;;;;;;;51.45;11.88;;;;;;;1.46;100.00;102473.28;10547605;28;20469;-79
2024/01/25 05:34:50;;;;;;;65.13;20.67;;;;;;;1.49;100.00;102480.44;10546970;28;20040;-79
2024/01/25 05:39:50;;;;;;;44.17;16.40;;;;;;;1.64;100.00;102481.22;10564077;28;20122;-79
2024/01/25 05:44:51;;;;;;;61.90;17.13;;;;;;;1.79;100.00;102497.44;10551223;28;20154;-79
2024/01/25 05:49:51;;;;;;;26.37;11.03;;;;;;;1.55;100.00;102494.00;10557828;28;20093;-78
2024/01/25 05:54:52;;;;;;;52.53;17.33;;;;;;;1.24;100.00;102491.53;10545229;28;20039;-80
2024/01/25 05:59:53;;;;;;;38.78;15.82;;;;;;;1.33;100.00;102496.78;10544916;28;20108;-81
2024/01/25 06:04:53;;;;;;;36.05;13.30;;;;;;;1.29;100.00;102490.41;10546565;28;20070;-80
2024/01/25 06:09:54;;;;;;;52.03;16.23;;;;;;;1.27;100.00;102498.69;10545564;28;20122;-81
2024/01/25 06:14:54;;;;;;;46.93;17.77;;;;;;;1.44;100.00;102488.56;10544952;28;20621;-81
2024/01/25 06:19:55;;;;;;;37.42;17.05;;;;;;;1.31;100.00;102499.22;10562729;28;20506;-81
2024/01/25 06:24:55;;;;;;;55.63;17.95;;;;;;;1.43;100.00;102485.84;10544946;28;20146;-80
2024/01/25 06:29:56;;;;;;;41.35;19.25;;;;;;;1.44;100.00;102485.09;10544682;28;20060;-82
2024/01/25 06:34:56;;;;;;;41.00;16.95;;;;;;;1.28;100.00;102485.03;10544382;28;20118;-80
2024/01/25 06:39:57;;;;;;;51.33;18.93;;;;;;;1.16;100.00;102485.50;10528366;27;20063;-79
2024/01/25 06:44:57;;;;;;;46.03;15.85;;;;;;;1.02;100.00;102478.84;10562840;28;20538;-79
2024/01/25 06:49:58;;;;;;;50.97;17.40;;;;;;;1.05;100.00;102503.13;10570152;28;20050;-80
2024/01/25 06:54:58;;;;;;;47.90;18.75;;;;;;;1.14;100.00;102499.00;10543261;27;20126;-79
2024/01/25 06:59:59;;;;;;;24.77;11.20;;;;;;;1.10;100.00;102495.16;10551208;28;20195;-80
2024/01/25 07:05:01;;;;;;;47.97;19.83;;;;;;;1.27;100.00;102497.03;10535570;28;20031;-80
2024/01/25 07:10:01;;;;;;;;;;;;;;;1.50;100.00;102505.47;10551911;28;20035;-80
2024/01/25 07:15:02;;;;;;;51.42;20.90;;;;;;;1.39;100.00;102512.06;10549649;28;19926;-80
2024/01/25 07:20:03;;;;;;;38.43;16.60;;;;;;;1.33;100.00;102508.78;10535520;28;20096;-80
2024/01/25 07:25:04;;;;;;;58.17;22.70;;;;;;;1.42;100.00;102502.97;10533344;28;20043;-79
2024/01/25 07:30:05;;;;;;;81.78;23.10;;;;;;;1.71;100.00;102523.34;10567061;28;20032;-80
2024/01/25 07:35:06;;;;;;;61.10;27.27;;;;;;;1.98;100.00;102521.03;10551109;28;20399;-79
2024/01/25 07:40:08;;;;;;;75.55;23.00;;;;;;;2.04;100.00;102526.88;10569417;28;20503;-78
2024/01/25 07:45:08;;;;;;;;;;;;;;;2.21;100.00;102513.19;10551018;28;20032;-80
2024/01/25 07:50:10;;;;;;;71.72;25.48;;;;;;;2.17;100.00;102524.88;10549580;28;19919;-80
2024/01/25 07:55:10;;;;;;;63.83;21.73;;;;;;;2.34;100.00;102536.09;10534904;28;20514;-83
2024/01/25 08:00:11;;;;;;;63.50;25.88;;;;;;;2.64;100.00;102522.94;10548191;27;20036;-81
2024/01/25 08:05:12;;;;;;;59.83;23.02;;;;;;;2.72;100.00;102522.84;10568155;28;20117;-79
2024/01/25 08:10:12;;;;;;;86.65;23.40;;;;;;;2.79;100.00;102523.69;10531532;28;20032;-79
2024/01/25 08:15:14;;;;;;;61.28;21.98;;;;;;;2.96;100.00;102518.44;10549557;28;20494;-80
2024/01/25 08:20:14;;;;;;;70.40;26.03;;;;;;;3.06;100.00;102514.41;10532397;27;20126;-80
2024/01/25 08:25:16;;;;;;;64.32;25.60;;;;;;;3.16;100.00;102512.78;10547462;28;20035;-80
2024/01/25 08:30:17;;;;;;;65.63;28.00;;;;;;;3.35;100.00;102518.16;10549345;28;20031;-79
2024/01/25 08:35:18;;;;;;;55.97;23.27;;;;;;;3.48;100.00;102510.00;10564792;28;20075;-79
2024/01/25 08:40:18;;;;;;;66.65;28.02;;;;;;;3.52;100.00;102497.50;10546499;28;20547;-79
2024/01/25 08:45:19;;;;;;;57.33;23.23;;;;;;;3.63;100.00;102513.22;10547441;28;20109;-78
2024/01/25 08:50:19;;;;;;;63.22;28.67;;;;;;;3.76;100.00;102508.53;10499891;28;20047;-79
2024/01/25 08:55:20;;;;;;;59.88;25.08;;;;;;;3.91;100.00;102484.94;10499731;28;20036;-78
2024/01/25 09:00:21;;;;;;;67.88;24.92;;;;;;;4.03;100.00;102504.31;10483692;28;20132;-77
2024/01/25 09:05:21;;;;;;;64.88;28.70;;;;;;;4.12;100.00;102519.88;10503024;28;20384;-78
2024/01/25 09:10:22;;;;;;;52.38;26.45;;;;;;;4.17;100.00;102530.69;10505500;28;20046;-78
2024/01/25 09:15:23;;;;;;;56.00;28.17;;;;;;;4.21;100.00;102528.59;10511196;28;20525;-78
2024/01/25 09:20:23;;;;;;;79.25;30.00;;;;;;;4.25;100.00;102525.53;10478227;28;20064;-78
2024/01/25 09:25:24;;;;;;;58.72;25.58;;;;;;;4.47;100.00;102527.66;10447376;28;20043;-78
2024/01/25 09:30:25;;;;;;;52.00;25.85;;;;;;;4.59;100.00;102514.09;10480784;28;20047;-78
2024/01/25 09:35:26;;;;;;;59.47;26.37;;;;;;;4.70;100.00;102505.69;10481669;28;20053;-78
2024/01/25 09:40:26;;;;;;;49.05;25.10;;;;;;;4.73;100.00;102511.16;10499260;28;20036;-78
2024/01/25 09:45:27;;;;;;;61.05;25.15;;;;;;;4.81;100.00;102511.91;10489374;28;20461;-78
2024/01/25 09:50:33;;;;;;;56.58;24.15;;;;;;;4.95;100.00;102510.66;10505119;28;20498;-78
2024/01/25 09:55:35;;;;;;;47.80;25.90;;;;;;;5.07;100.00;102501.47;10522346;28;20395;-78
2024/01/25 10:00:35;;;;;;;49.22;22.50;;;;;;;5.16;100.00;102503.13;10523007;28;20405;-78
2024/01/25 10:05:36;;;;;;;47.80;20.85;;;;;;;5.28;100.00;102502.59;10504531;28;20028;-78
2024/01/25 10:10:36;;;;;;;51.92;22.13;;;;;;;5.48;100.00;102485.38;10504449;28;20135;-79
2024/01/25 10:15:37;;;;;;;56.65;23.17;;;;;;;5.71;100.00;102492.75;10521644;28;20541;-78
2024/01/25 10:20:37;;;;;;;44.63;21.83;;;;;;;5.74;100.00;102492.13;10488687;28;20135;-78
2024/01/25 10:25:38;;;;;;;43.53;20.95;;;;;;;5.89;100.00;102482.25;10517985;28;20100;-80
2024/01/25 10:30:38;;;;;;;42.10;21.42;;;;;;;6.07;100.00;102462.25;10510206;28;20566;-80
2024/01/25 10:35:39;;;;;;;54.00;22.50;;;;;;;6.40;100.00;102447.88;10516952;28;20031;-80
2024/01/25 10:40:40;;;;;;;53.28;22.00;;;;;;;6.76;100.00;102427.63;10510600;28;20044;-78
2024/01/25 10:45:40;;;;;;;52.13;21.23;;;;;;;7.03;100.00;102415.19;10494638;28;20075;-79
2024/01/25 10:50:41;;;;;;;45.15;17.77;;;;;;;7.00;100.00;102402.81;10527845;28;20127;-79
2024/01/25 10:55:41;;;;;;;60.63;20.67;;;;;;;6.79;100.00;102361.91;10529714;28;20114;-80
2024/01/25 11:00:49;;;;;;;40.47;17.58;;;;;;;6.56;100.00;102358.22;10510899;28;20029;-79
2024/01/25 11:05:50;;;;;;;44.83;19.50;;;;;;;6.47;100.00;102347.91;10512910;28;20051;-79
2024/01/25 11:10:52;;;;;;;49.03;21.42;;;;;;;6.39;100.00;102343.72;10510760;28;20064;-79
2024/01/25 11:15:52;;;;;;;36.33;18.67;;;;;;;6.43;100.00;102351.03;10510002;28;20494;-81
2024/01/25 11:20:53;;;;;;;52.38;20.45;;;;;;;6.37;100.00;102364.38;10492824;28;20043;-80
2024/01/25 11:25:54;;;;;;;32.95;19.27;;;;;;;6.28;100.00;102359.28;10511142;28;20067;-77
2024/01/25 11:30:55;;;;;;;36.35;21.55;;;;;;;6.21;100.00;102375.13;10527561;28;20472;-78
2024/01/25 11:35:55;;;;;;;31.70;19.98;;;;;;;6.17;100.00;102376.53;10508975;28;20042;-79
2024/01/25 11:40:58;;;;;;;31.98;18.52;;;;;;;6.13;100.00;102365.72;10526158;28;20422;-78
2024/01/25 11:45:58;;;;;;;53.17;23.05;;;;;;;6.10;100.00;102350.75;10476614;28;20048;-79
2024/01/25 11:51:00;;;;;;;47.63;21.98;;;;;;;6.09;100.00;102333.31;10533678;28;20154;-78
2024/01/25 11:56:00;;;;;;;36.58;15.65;;;;;;;6.33;100.00;102338.88;10567614;28;20438;-78
2024/01/25 12:01:02;;;;;;;53.53;22.90;;;;;;;6.41;100.00;102363.00;10565585;27;20126;-80
2024/01/25 12:06:04;;;;;;;65.85;24.45;;;;;;;6.62;100.00;102340.53;10517218;28;20043;-80
2024/01/25 12:11:06;;;;;;;48.75;23.98;;;;;;;6.81;100.00;102344.75;10548960;28;20051;-81
2024/01/25 12:16:07;;;;;;;59.60;24.33;;;;;;;6.93;100.00;102343.19;10566282;28;20039;-80
2024/01/25 12:21:07;;;;;;;50.97;23.73;;;;;;;7.18;100.00;102325.38;10549125;28;20152;-80
2024/01/25 12:26:09;;;;;;;61.58;26.95;;;;;;;7.29;100.00;102348.81;10567050;28;20050;-81
2024/01/25 12:31:09;;;;;;;38.53;22.43;;;;;;;7.53;100.00;102342.16;10548947;28;20499;-81
2024/01/25 12:36:10;;;;;;;51.88;24.92;;;;;;;7.70;100.00;102319.19;10548233;28;20147;-81
2024/01/25 12:41:10;;;;;;;55.28;24.38;;;;;;;7.87;100.00;102313.66;10548943;28;20039;-79
2024/01/25 12:46:11;;;;;;;48.22;25.23;;;;;;;8.21;100.00;102287.72;10547174;28;20058;-81
2024/01/25 12:51:11;;;;;;;53.97;24.35;;;;;;;8.29;100.00;102300.47;10567974;28;20433;-81
2024/01/25 12:56:12;;;;;;;40.05;20.67;;;;;;;8.35;100.00;102300.94;10530006;28;20517;-80
2024/01/25 13:01:12;;;;;;;47.47;20.05;;;;;;;8.35;100.00;102301.88;10524679;28;20036;-78
2024/01/25 13:06:13;;;;;;;54.22;22.00;;;;;;;8.45;100.00;102308.72;10505464;28;20064;-80
2024/01/25 13:11:13;;;;;;;35.08;18.20;;;;;;;8.44;100.00;102303.41;10503598;28;20036;-79
2024/01/25 13:16:16;;;;;;;45.47;20.10;;;;;;;8.29;100.00;102290.03;10505890;28;20609;-79
2024/01/25 13:21:17;;;;;;;35.30;18.75;;;;;;;8.22;100.00;102297.34;10504399;28;20090;-78
2024/01/25 13:26:17;;;;;;;39.42;21.30;;;;;;;8.05;100.00;102282.97;10481991;28;20121;-79
2024/01/25 13:31:18;;;;;;;29.35;18.75;;;;;;;7.93;100.00;102282.00;10506187;28;20159;-79
2024/01/25 13:36:18;;;;;;;38.88;19.58;;;;;;;7.84;100.00;102292.56;10522931;28;20365;-79
2024/01/25 13:41:19;;;;;;;37.30;16.73;;;;;;;7.79;100.00;102287.00;10505711;28;20040;-78
2024/01/25 13:46:19;;;;;;;32.53;15.10;;;;;;;7.77;100.00;102283.34;10534114;28;20124;-80
2024/01/25 13:51:20;;;;;;;38.83;19.27;;;;;;;7.74;100.00;102280.50;10590227;28;20399;-80
2024/01/25 13:56:21;;;;;;;36.60;16.17;;;;;;;7.71;100.00;102276.72;10568252;28;20063;-80
2024/01/25 14:01:21;;;;;;;31.58;14.60;;;;;;;7.62;100.00;102272.56;10555133;28;20134;-79
2024/01/25 14:06:22;;;;;;;55.08;18.70;;;;;;;7.55;100.00;102271.94;10547647;28;20539;-80
2024/01/25 14:11:22;;;;;;;35.88;15.60;;;;;;;7.51;100.00;102273.38;10548013;28;20032;-80
2024/01/25 14:16:23;;;;;;;37.90;16.20;;;;;;;7.45;100.00;102252.94;10572925;28;20130;-84
2024/01/25 14:21:23;;;;;;;36.05;15.23;;;;;;;7.53;100.00;102250.97;10555550;28;20796;-81
2024/01/25 14:26:24;;;;;;;42.13;14.75;;;;;;;7.55;100.00;102236.38;10571094;28;20074;-81
2024/01/25 14:31:24;;;;;;;35.28;15.02;;;;;;;7.59;100.00;102224.50;10553442;27;20063;-79
2024/01/25 14:36:25;;;;;;;35.50;14.25;;;;;;;7.61;100.00;102226.44;10573640;27;20506;-79
2024/01/25 14:41:25;;;;;;;37.92;14.65;;;;;;;7.70;100.00;102221.09;10568249;28;20044;-79
2024/01/25 14:46:26;;;;;;;39.25;13.30;;;;;;;7.78;100.00;102216.47;10549400;27;20048;-79
2024/01/25 14:51:26;;;;;;;30.60;13.38;;;;;;;7.84;100.00;102203.94;10567749;28;20123;-79
2024/01/25 14:56:27;;;;;;;53.08;14.63;;;;;;;7.91;100.00;102203.63;10549057;28;20093;-79
2024/01/25 15:01:30;;;;;;;47.83;14.57;;;;;;;7.92;100.00;102197.63;10567236;28;20124;-80
2024/01/25 15:06:31;;;;;;;37.15;13.43;;;;;;;7.83;100.00;102196.00;10561026;27;20059;-78
2024/01/25 15:11:31;;;;;;;29.60;13.80;;;;;;;7.67;100.00;102189.56;10564723;27;20547;-80
2024/01/25 15:16:32;;;;;;;30.08;10.73;;;;;;;7.36;100.00;102184.47;10550285;28;20176;-79
2024/01/25 15:21:33;;;;;;;36.58;14.02;;;;;;;7.17;100.00;102176.81;10548449;28;20039;-79
2024/01/25 15:26:34;;;;;;;31.67;11.15;;;;;;;6.99;100.00;102177.13;10551768;28;20044;-78
2024/01/25 15:31:35;;;;;;;32.17;11.40;;;;;;;6.90;100.00;102176.34;10572715;27;20087;-80
2024/01/25 15:36:35;;;;;;;34.42;14.40;;;;;;;6.84;100.00;102173.25;10564561;27;20101;-80
2024/01/25 15:41:36;;;;;;;35.60;14.27;;;;;;;6.79;100.00;102166.72;10571052;27;20127;-79
2024/01/25 15:46:37;;;;;;;32.97;11.95;;;;;;;6.70;100.00;102157.38;10550696;27;20057;-80
2024/01/25 15:51:37;;;;;;;29.27;11.60;;;;;;;6.66;100.00;102168.31;10552881;27;20131;-78
2024/01/25 15:56:38;;;;;;;35.00;11.73;;;;;;;6.67;100.00;102156.22;10576475;27;20043;-78
2024/01/25 16:01:39;;;;;;;33.88;12.68;;;;;;;6.65;100.00;102156.06;10578703;27;20055;-78
2024/01/25 16:06:39;;;;;;;34.80;16.15;;;;;;;6.68;100.00;102151.13;10585012;27;20436;-78
2024/01/25 16:11:43;;;;;;;36.05;14.27;;;;;;;6.66;100.00;102142.28;10571762;27;20040;-78
2024/01/25 16:16:43;;;;;;;28.05;13.90;;;;;;;6.69;100.00;102137.34;10549919;27;20047;-78
2024/01/25 16:21:44;;;;;;;28.23;13.50;;;;;;;6.67;100.00;102131.09;10544653;27;20066;-79
2024/01/25 16:26:45;;;;;;;22.02;11.80;;;;;;;6.64;100.00;102130.84;10567050;27;20569;-79
2024/01/25 16:31:45;;;;;;;16.52;10.00;;;;;;;6.64;100.00;102137.75;10553184;27;20492;-78
2024/01/25 16:36:46;;;;;;;22.95;10.65;;;;;;;6.70;100.00;102138.28;10543872;28;20049;-79
2024/01/25 16:41:47;;;;;;;29.13;11.25;;;;;;;6.70;100.00;102144.38;10545690;28;20510;-78
2024/01/25 16:46:47;;;;;;;26.23;11.13;;;;;;;6.71;100.00;102142.69;10562625;27;20118;-78
2024/01/25 16:51:47;;;;;;;23.60;11.02;;;;;;;6.70;100.00;102146.97;10560935;28;20111;-79
2024/01/25 16:56:48;;;;;;;29.40;12.82;;;;;;;6.71;100.00;102154.00;10561858;28;20122;-79
2024/01/25 17:01:52;;;;;;;27.20;12.18;;;;;;;6.72;100.00;102153.22;10571403;27;20123;-82
2024/01/25 17:06:53;;;;;;;23.95;13.20;;;;;;;6.75;100.00;102140.47;10557046;28;20146;-78
2024/01/25 17:11:53;;;;;;;17.13;11.05;;;;;;;6.75;100.00;102135.25;10546440;28;20185;-77
2024/01/25 17:16:54;;;;;;;23.00;14.15;;;;;;;6.79;100.00;102132.91;10563980;28;20119;-78
2024/01/25 17:21:55;;;;;;;23.85;13.00;;;;;;;6.79;100.00;102138.13;10528507;28;20039;-79
2024/01/25 17:26:55;;;;;;;22.80;13.77;;;;;;;6.81;100.00;102131.34;10545982;28;20067;-79
2024/01/25 17:31:56;;;;;;;30.95;17.38;;;;;;;6.84;100.00;102126.38;10563280;28;20398;-81
2024/01/25 17:36:56;;;;;;;34.08;17.92;;;;;;;6.94;100.00;102130.69;10563379;28;20126;-78
2024/01/25 17:41:57;;;;;;;33.75;18.98;;;;;;;6.96;100.00;102132.63;10545400;28;20042;-79
2024/01/25 17:46:58;;;;;;;28.35;18.85;;;;;;;7.00;100.00;102131.19;10563677;28;20104;-78
2024/01/25 17:51:59;;;;;;;33.17;20.07;;;;;;;7.01;100.00;102125.19;10565210;28;20028;-80
2024/01/25 17:57:00;;;;;;;35.33;22.70;;;;;;;7.08;100.00;102114.50;10562273;28;20127;-79
2024/01/25 18:02:04;;;;;;;45.35;24.50;;;;;;;7.11;100.00;102109.56;10553073;28;20043;-79
2024/01/25 18:07:05;;;;;;;36.92;23.65;;;;;;;7.11;100.00;102117.38;10566640;28;20354;-80
2024/01/25 18:12:07;;;;;;;40.75;24.38;;;;;;;7.16;100.00;102120.31;10562383;28;20032;-80
2024/01/25 18:17:08;;;;;;;35.40;25.88;;;;;;;7.17;100.00;102125.69;10545803;28;20044;-77
2024/01/25 18:22:09;;;;;;;39.97;27.05;;;;;;;7.26;100.00;102119.41;10545473;28;20487;-78
2024/01/25 18:27:10;;;;;;;39.85;27.80;;;;;;;7.33;100.00;102117.41;10563002;28;20040;-78
2024/01/25 18:32:10;;;;;;;38.97;26.05;;;;;;;7.28;100.00;102121.31;10563410;28;20043;-78
2024/01/25 18:37:11;;;;;;;41.40;28.08;;;;;;;7.24;100.00;102115.75;10562787;28;20555;-78
2024/01/25 18:42:11;;;;;;;39.10;27.67;;;;;;;7.24;100.00;102108.84;10531039;28;20130;-78
2024/01/25 18:47:12;;;;;;;41.20;27.13;;;;;;;7.20;100.00;102102.50;10536301;28;20473;-78
2024/01/25 18:52:13;;;;;;;37.70;28.05;;;;;;;7.18;100.00;102091.03;10571229;28;20039;-78
2024/01/25 18:57:13;;;;;;;45.63;27.55;;;;;;;7.14;100.00;102094.19;10551639;27;20126;-78
2024/01/25 19:02:14;;;;;;;47.88;29.10;;;;;;;7.11;100.00;102088.72;10570032;28;20131;-78
2024/01/25 19:07:15;;;;;;;35.78;26.58;;;;;;;7.11;100.00;102091.31;10569297;28;20051;-78
2024/01/25 19:12:15;;;;;;;39.47;27.20;;;;;;;7.14;100.00;102081.16;10569258;28;20491;-77
2024/01/25 19:17:16;;;;;;;41.28;26.02;;;;;;;7.22;100.00;102076.56;10535786;28;20457;-77
2024/01/25 19:22:16;;;;;;;35.33;25.98;;;;;;;7.16;100.00;102065.66;10550675;28;20119;-77
2024/01/25 19:27:17;;;;;;;34.17;24.48;;;;;;;7.08;100.00;102066.72;10567664;28;20040;-77
2024/01/25 19:32:19;;;;;;;43.03;25.55;;;;;;;7.08;100.00;102058.91;10550338;28;20126;-77
2024/01/25 19:37:20;;;;;;;40.72;27.50;;;;;;;7.08;100.00;102049.41;10552720;28;20040;-77
2024/01/25 19:42:20;;;;;;;37.03;26.85;;;;;;;6.95;100.00;102037.09;10568116;28;20500;-78
2024/01/25 19:47:21;;;;;;;46.63;27.30;;;;;;;6.85;100.00;102039.72;10567434;28;20130;-77
2024/01/25 19:52:21;;;;;;;41.70;25.83;;;;;;;6.94;100.00;102047.41;10569719;28;20058;-77
2024/01/25 19:57:22;;;;;;;35.42;26.77;;;;;;;7.00;100.00;102040.97;10548373;28;20451;-78
2024/01/25 20:02:23;;;;;;;31.98;23.23;;;;;;;7.09;100.00;102034.69;10568187;28;20039;-78
2024/01/25 20:07:24;;;;;;;37.28;24.33;;;;;;;7.10;100.00;102024.41;10549572;28;20101;-78
2024/01/25 20:12:25;;;;;;;36.35;24.35;;;;;;;7.08;100.00;102031.19;10548993;28;20139;-78
2024/01/25 20:17:25;;;;;;;36.95;24.27;;;;;;;7.02;100.00;102020.28;10566356;28;20040;-77
2024/01/25 20:22:26;;;;;;;29.42;23.50;;;;;;;7.07;100.00;102024.16;10565767;28;20109;-79
2024/01/25 20:27:26;;;;;;;39.22;25.27;;;;;;;7.11;100.00;102027.91;10567780;27;20134;-78
2024/01/25 20:32:27;;;;;;;42.47;26.27;;;;;;;7.18;100.00;102018.13;10531433;28;20047;-77
2024/01/25 20:37:28;;;;;;;35.00;24.60;;;;;;;7.25;100.00;102008.19;10531304;28;20551;-77
2024/01/25 20:42:28;;;;;;;34.22;23.67;;;;;;;7.33;100.00;102002.78;10547269;28;20028;-78
2024/01/25 20:47:29;;;;;;;37.22;25.05;;;;;;;7.38;100.00;102004.84;10565458;27;20130;-78
2024/01/25 20:52:29;;;;;;;33.13;25.40;;;;;;;7.44;100.00;101992.31;10566278;28;20036;-77
2024/01/25 20:57:30;;;;;;;36.30;25.05;;;;;;;7.51;100.00;101999.81;10547028;28;20496;-77
2024/01/25 21:02:31;;;;;;;36.20;25.80;;;;;;;7.56;100.00;101990.66;10547123;28;20119;-77
2024/01/25 21:07:31;;;;;;;34.03;23.65;;;;;;;7.56;100.00;101987.19;10547150;28;20081;-77
2024/01/25 21:12:32;;;;;;;38.83;24.23;;;;;;;7.59;100.00;101972.66;10545513;28;20051;-81
2024/01/25 21:17:33;;;;;;;37.83;24.42;;;;;;;7.55;100.00;101956.69;10565835;28;20047;-77
2024/01/25 21:22:33;;;;;;;36.53;23.92;;;;;;;7.58;100.00;101968.25;10564423;28;20048;-77
2024/01/25 21:27:34;;;;;;;41.08;27.27;;;;;;;7.61;100.00;101971.09;10564431;28;20067;-77
2024/01/25 21:32:34;;;;;;;33.78;25.55;;;;;;;7.68;100.00;101961.16;10545386;28;20111;-77
2024/01/25 21:37:35;;;;;;;37.92;26.23;;;;;;;7.68;100.00;101966.34;10530408;28;20114;-77
2024/01/25 21:42:36;;;;;;;34.45;24.10;;;;;;;7.68;100.00;101958.53;10562858;28;20031;-76
2024/01/25 21:47:37;;;;;;;37.05;25.38;;;;;;;7.66;100.00;101955.84;10564024;28;20039;-77
2024/01/25 21:52:37;;;;;;;29.30;23.50;;;;;;;7.67;100.00;101954.13;10547027;28;20422;-76
2024/01/25 21:57:44;;;;;;;38.25;22.52;;;;;;;7.73;100.00;101952.91;10546864;28;20034;-77
2024/01/25 22:02:45;;;;;;;27.38;20.92;;;;;;;7.73;100.00;101945.09;10546036;28;20510;-77
2024/01/25 22:07:46;;;;;;;34.37;24.17;;;;;;;7.77;100.00;101947.13;10529137;28;20035;-76
2024/01/25 22:12:46;;;;;;;38.85;24.15;;;;;;;7.77;100.00;101943.59;10528644;28;20450;-77
2024/01/25 22:17:47;;;;;;;28.52;21.27;;;;;;;7.77;100.00;101941.91;10532681;28;20046;-77
2024/01/25 22:22:47;;;;;;;32.58;23.30;;;;;;;7.83;100.00;101948.41;10536922;28;20115;-78
2024/01/25 22:27:48;;;;;;;31.45;21.63;;;;;;;7.83;100.00;101944.06;10572656;28;20491;-77
2024/01/25 22:32:48;;;;;;;35.10;25.38;;;;;;;7.80;100.00;101938.63;10570822;28;20123;-77